sensor_id;sensor_type;location;lat;lon;timestamp;pressure;altitude;pressure_sealevel;temperature;humidity
26083;BME280;13848;49.018;12.078;2022-11-09T00:02:08;97534.13;;;8.35;81.35
26083;BME280;13848;49.018;12.078;2022-11-09T00:04:34;97527.13;;;8.34;81.48
26083;BME280;13848;49.018;12.078;2022-11-09T00:07:00;97523.41;;;8.35;84.16
26083;BME280;13848;49.018;12.078;2022-11-09T00:09:28;97538.69;;;8.34;82.62
26083;BME280;13848;49.018;12.078;2022-11-09T00:11:53;97550.28;;;8.48;81.58
26083;BME280;13848;49.018;12.078;2022-11-09T00:14:19;97530.84;;;8.52;80.85
26083;BME280;13848;49.018;12.078;2022-11-09T00:16:45;97523.81;;;8.45;80.80
26083;BME280;13848;49.018;12.078;2022-11-09T00:19:12;97519.72;;;8.36;80.99
26083;BME280;13848;49.018;12.078;2022-11-09T00:21:38;97528.59;;;8.30;81.17
26083;BME280;13848;49.018;12.078;2022-11-09T00:24:04;97529.84;;;8.27;81.54
26083;BME280;13848;49.018;12.078;2022-11-09T00:26:32;97527.97;;;8.27;81.27
26083;BME280;13848;49.018;12.078;2022-11-09T00:28:58;97525.91;;;8.23;81.10
26083;BME280;13848;49.018;12.078;2022-11-09T00:31:24;97523.88;;;8.18;81.68
26083;BME280;13848;49.018;12.078;2022-11-09T00:33:51;97528.00;;;8.14;81.56
26083;BME280;13848;49.018;12.078;2022-11-09T00:36:19;97526.75;;;8.17;81.39
26083;BME280;13848;49.018;12.078;2022-11-09T00:38:47;97521.00;;;8.13;81.68
26083;BME280;13848;49.018;12.078;2022-11-09T00:41:14;97525.13;;;8.09;81.78
26083;BME280;13848;49.018;12.078;2022-11-09T00:43:41;97522.63;;;8.14;81.55
26083;BME280;13848;49.018;12.078;2022-11-09T00:46:07;97527.59;;;8.11;81.80
26083;BME280;13848;49.018;12.078;2022-11-09T00:48:34;97518.72;;;8.10;81.72
26083;BME280;13848;49.018;12.078;2022-11-09T00:51:00;97515.22;;;8.03;81.90
26083;BME280;13848;49.018;12.078;2022-11-09T00:53:27;97513.16;;;7.98;81.71
26083;BME280;13848;49.018;12.078;2022-11-09T00:55:54;97511.75;;;7.96;81.99
26083;BME280;13848;49.018;12.078;2022-11-09T00:58:21;97509.06;;;7.96;82.06
26083;BME280;13848;49.018;12.078;2022-11-09T01:00:48;97507.81;;;7.92;82.23
26083;BME280;13848;49.018;12.078;2022-11-09T01:03:15;97506.56;;;7.88;82.08
26083;BME280;13848;49.018;12.078;2022-11-09T01:05:40;97508.84;;;7.91;82.36
26083;BME280;13848;49.018;12.078;2022-11-09T01:08:07;97510.47;;;7.98;82.28
26083;BME280;13848;49.018;12.078;2022-11-09T01:10:33;97507.00;;;7.85;82.25
26083;BME280;13848;49.018;12.078;2022-11-09T01:13:00;97496.66;;;7.82;82.80
26083;BME280;13848;49.018;12.078;2022-11-09T01:15:26;97501.00;;;7.76;82.99
26083;BME280;13848;49.018;12.078;2022-11-09T01:17:53;97497.09;;;7.79;82.51
26083;BME280;13848;49.018;12.078;2022-11-09T01:20:19;97485.56;;;7.71;83.37
26083;BME280;13848;49.018;12.078;2022-11-09T01:22:45;97469.44;;;7.58;84.01
26083;BME280;13848;49.018;12.078;2022-11-09T01:25:11;97459.34;;;7.60;84.01
26083;BME280;13848;49.018;12.078;2022-11-09T01:27:37;97480.19;;;7.58;84.23
26083;BME280;13848;49.018;12.078;2022-11-09T01:30:03;97469.25;;;7.66;83.77
26083;BME280;13848;49.018;12.078;2022-11-09T01:32:30;97472.56;;;7.55;84.38
26083;BME280;13848;49.018;12.078;2022-11-09T01:34:58;97481.84;;;7.46;84.75
26083;BME280;13848;49.018;12.078;2022-11-09T01:37:24;97476.50;;;7.39;85.14
26083;BME280;13848;49.018;12.078;2022-11-09T01:39:50;97484.53;;;7.46;85.61
26083;BME280;13848;49.018;12.078;2022-11-09T01:42:22;97498.16;;;7.51;84.62
26083;BME280;13848;49.018;12.078;2022-11-09T01:45:18;97499.59;;;7.67;83.92
26083;BME280;13848;49.018;12.078;2022-11-09T01:47:47;97495.88;;;7.68;83.97
26083;BME280;13848;49.018;12.078;2022-11-09T01:50:19;97493.38;;;7.53;84.50
26083;BME280;13848;49.018;12.078;2022-11-09T01:52:49;97489.28;;;7.51;84.52
26083;BME280;13848;49.018;12.078;2022-11-09T01:55:18;97497.94;;;7.46;84.98
26083;BME280;13848;49.018;12.078;2022-11-09T01:57:50;97505.38;;;7.57;84.40
26083;BME280;13848;49.018;12.078;2022-11-09T02:00:18;97514.44;;;7.63;84.37
26083;BME280;13848;49.018;12.078;2022-11-09T02:02:52;97497.53;;;7.62;84.22
26083;BME280;13848;49.018;12.078;2022-11-09T02:05:23;97504.53;;;7.63;83.96
26083;BME280;13848;49.018;12.078;2022-11-09T02:07:51;97506.19;;;7.64;83.71
26083;BME280;13848;49.018;12.078;2022-11-09T02:10:21;97505.34;;;7.64;83.89
26083;BME280;13848;49.018;12.078;2022-11-09T02:12:49;97496.50;;;7.63;83.98
26083;BME280;13848;49.018;12.078;2022-11-09T02:15:16;97490.31;;;7.56;84.05
26083;BME280;13848;49.018;12.078;2022-11-09T02:17:42;97487.00;;;7.67;83.78
26083;BME280;13848;49.018;12.078;2022-11-09T02:20:12;97479.56;;;7.63;83.79
26083;BME280;13848;49.018;12.078;2022-11-09T02:22:38;97481.03;;;7.32;84.87
26083;BME280;13848;49.018;12.078;2022-11-09T02:25:05;97479.38;;;7.38;84.89
26083;BME280;13848;49.018;12.078;2022-11-09T02:27:31;97488.25;;;7.45;84.90
26083;BME280;13848;49.018;12.078;2022-11-09T02:29:58;97486.59;;;7.51;84.24
26083;BME280;13848;49.018;12.078;2022-11-09T02:32:27;97493.00;;;7.56;84.01
26083;BME280;13848;49.018;12.078;2022-11-09T02:34:54;97490.31;;;7.56;84.30
26083;BME280;13848;49.018;12.078;2022-11-09T02:37:26;97498.13;;;7.64;83.99
26083;BME280;13848;49.018;12.078;2022-11-09T02:39:53;97502.91;;;7.56;84.41
26083;BME280;13848;49.018;12.078;2022-11-09T02:42:20;97499.16;;;7.63;84.14
26083;BME280;13848;49.018;12.078;2022-11-09T02:44:48;97490.53;;;7.55;84.07
26083;BME280;13848;49.018;12.078;2022-11-09T02:47:16;97477.75;;;7.37;85.03
26083;BME280;13848;49.018;12.078;2022-11-09T02:49:42;97469.88;;;7.29;85.74
26083;BME280;13848;49.018;12.078;2022-11-09T02:52:08;97468.00;;;7.36;85.28
26083;BME280;13848;49.018;12.078;2022-11-09T02:54:35;97475.66;;;7.39;84.84
26083;BME280;13848;49.018;12.078;2022-11-09T02:57:01;97476.91;;;7.36;85.34
26083;BME280;13848;49.018;12.078;2022-11-09T02:59:27;97477.91;;;7.35;85.16
26083;BME280;13848;49.018;12.078;2022-11-09T03:01:53;97476.91;;;7.43;84.58
26083;BME280;13848;49.018;12.078;2022-11-09T03:04:19;97480.63;;;7.49;84.55
26083;BME280;13848;49.018;12.078;2022-11-09T03:06:45;97476.09;;;7.49;84.47
26083;BME280;13848;49.018;12.078;2022-11-09T03:09:11;97481.44;;;7.36;84.93
26083;BME280;13848;49.018;12.078;2022-11-09T03:11:40;97497.94;;;7.39;84.72
26083;BME280;13848;49.018;12.078;2022-11-09T03:14:06;97492.19;;;7.49;84.17
26083;BME280;13848;49.018;12.078;2022-11-09T03:16:33;97489.28;;;7.57;84.31
26083;BME280;13848;49.018;12.078;2022-11-09T03:18:59;97491.75;;;7.45;84.45
26083;BME280;13848;49.018;12.078;2022-11-09T03:21:24;97497.94;;;7.46;84.60
26083;BME280;13848;49.018;12.078;2022-11-09T03:23:51;97495.47;;;7.31;85.00
26083;BME280;13848;49.018;12.078;2022-11-09T03:26:17;97493.41;;;7.40;85.19
26083;BME280;13848;49.018;12.078;2022-11-09T03:28:44;97493.81;;;7.37;85.15
26083;BME280;13848;49.018;12.078;2022-11-09T03:31:10;97484.75;;;7.38;85.15
26083;BME280;13848;49.018;12.078;2022-11-09T03:33:36;97488.84;;;7.40;84.68
26083;BME280;13848;49.018;12.078;2022-11-09T03:36:03;97494.66;;;7.31;84.91
26083;BME280;13848;49.018;12.078;2022-11-09T03:38:29;97494.66;;;7.37;85.23
26083;BME280;13848;49.018;12.078;2022-11-09T03:40:58;97497.13;;;7.39;84.81
26083;BME280;13848;49.018;12.078;2022-11-09T03:43:24;97486.78;;;7.36;84.68
26083;BME280;13848;49.018;12.078;2022-11-09T03:45:51;97491.75;;;7.26;85.73
26083;BME280;13848;49.018;12.078;2022-11-09T03:48:17;97489.69;;;7.28;85.51
26083;BME280;13848;49.018;12.078;2022-11-09T03:50:43;97496.69;;;7.15;85.56
26083;BME280;13848;49.018;12.078;2022-11-09T03:53:09;97495.88;;;7.15;86.54
26083;BME280;13848;49.018;12.078;2022-11-09T03:55:36;97497.94;;;7.26;86.16
26083;BME280;13848;49.018;12.078;2022-11-09T03:58:02;97491.53;;;7.20;86.04
26083;BME280;13848;49.018;12.078;2022-11-09T04:00:28;97497.94;;;7.33;85.34
26083;BME280;13848;49.018;12.078;2022-11-09T04:03:01;97505.78;;;7.34;85.01
26083;BME280;13848;49.018;12.078;2022-11-09T04:05:27;97509.06;;;7.30;85.81
26083;BME280;13848;49.018;12.078;2022-11-09T04:07:54;97511.53;;;7.11;86.10
26083;BME280;13848;49.018;12.078;2022-11-09T04:10:22;97509.50;;;7.27;85.94
26083;BME280;13848;49.018;12.078;2022-11-09T04:12:50;97501.63;;;7.18;85.56
26083;BME280;13848;49.018;12.078;2022-11-09T04:15:17;97497.50;;;7.09;86.42
26083;BME280;13848;49.018;12.078;2022-11-09T04:17:43;97493.19;;;7.15;86.10
26083;BME280;13848;49.018;12.078;2022-11-09T04:20:10;97502.06;;;7.15;85.80
26083;BME280;13848;49.018;12.078;2022-11-09T04:22:36;97498.13;;;7.18;85.82
26083;BME280;13848;49.018;12.078;2022-11-09T04:25:03;97493.81;;;7.17;85.67
26083;BME280;13848;49.018;12.078;2022-11-09T04:27:29;97500.19;;;7.09;86.07
26083;BME280;13848;49.018;12.078;2022-11-09T04:29:55;97499.56;;;7.07;86.31
26083;BME280;13848;49.018;12.078;2022-11-09T04:32:21;97476.44;;;6.86;86.62
26083;BME280;13848;49.018;12.078;2022-11-09T04:34:47;97490.47;;;6.95;86.86
26083;BME280;13848;49.018;12.078;2022-11-09T04:37:15;97491.72;;;6.99;86.86
26083;BME280;13848;49.018;12.078;2022-11-09T04:39:41;97484.69;;;6.85;87.03
26083;BME280;13848;49.018;12.078;2022-11-09T04:42:06;97481.41;;;6.96;86.73
26083;BME280;13848;49.018;12.078;2022-11-09T04:44:32;97477.47;;;6.92;87.17
26083;BME280;13848;49.018;12.078;2022-11-09T04:46:58;97483.06;;;6.90;86.57
26083;BME280;13848;49.018;12.078;2022-11-09T04:49:24;97488.59;;;6.89;87.06
26083;BME280;13848;49.018;12.078;2022-11-09T04:51:50;97477.88;;;6.89;87.70
26083;BME280;13848;49.018;12.078;2022-11-09T04:54:17;97475.19;;;6.76;87.75
26083;BME280;13848;49.018;12.078;2022-11-09T04:56:43;97477.63;;;6.71;88.40
26083;BME280;13848;49.018;12.078;2022-11-09T04:59:09;97484.25;;;6.81;88.06
26083;BME280;13848;49.018;12.078;2022-11-09T05:01:35;97476.22;;;6.88;86.88
26083;BME280;13848;49.018;12.078;2022-11-09T05:04:01;97487.75;;;6.69;88.37
26083;BME280;13848;49.018;12.078;2022-11-09T05:06:27;97480.66;;;6.54;88.68
26083;BME280;13848;49.018;12.078;2022-11-09T05:08:54;97481.34;;;6.70;88.01
26083;BME280;13848;49.018;12.078;2022-11-09T05:11:22;97486.91;;;6.61;88.44
26083;BME280;13848;49.018;12.078;2022-11-09T05:13:48;97500.44;;;6.47;88.43
26083;BME280;13848;49.018;12.078;2022-11-09T05:16:14;97502.28;;;6.46;88.65
26083;BME280;13848;49.018;12.078;2022-11-09T05:18:40;97502.66;;;6.43;88.69
26083;BME280;13848;49.018;12.078;2022-11-09T05:21:06;97512.97;;;6.39;88.87
26083;BME280;13848;49.018;12.078;2022-11-09T05:23:32;97514.94;;;6.24;88.93
26083;BME280;13848;49.018;12.078;2022-11-09T05:25:58;97510.19;;;6.20;89.95
26083;BME280;13848;49.018;12.078;2022-11-09T05:28:25;97511.25;;;6.25;88.83
26083;BME280;13848;49.018;12.078;2022-11-09T05:30:51;97505.19;;;6.03;90.18
26083;BME280;13848;49.018;12.078;2022-11-09T05:33:17;97509.53;;;6.11;89.87
26083;BME280;13848;49.018;12.078;2022-11-09T05:35:43;97522.72;;;6.12;89.62
26083;BME280;13848;49.018;12.078;2022-11-09T05:38:09;97523.66;;;6.33;88.50
26083;BME280;13848;49.018;12.078;2022-11-09T05:40:35;97522.41;;;6.29;88.41
26083;BME280;13848;49.018;12.078;2022-11-09T05:43:01;97521.94;;;6.25;88.79
26083;BME280;13848;49.018;12.078;2022-11-09T05:45:28;97519.41;;;6.10;89.86
26083;BME280;13848;49.018;12.078;2022-11-09T05:47:54;97513.41;;;6.08;90.17
26083;BME280;13848;49.018;12.078;2022-11-09T05:50:20;97514.69;;;6.12;89.25
26083;BME280;13848;49.018;12.078;2022-11-09T05:52:46;97509.19;;;6.21;89.04
26083;BME280;13848;49.018;12.078;2022-11-09T05:55:12;97507.09;;;6.16;88.77
26083;BME280;13848;49.018;12.078;2022-11-09T05:57:38;97516.19;;;6.22;87.63
26083;BME280;13848;49.018;12.078;2022-11-09T06:00:05;97519.91;;;6.21;87.90
26083;BME280;13848;49.018;12.078;2022-11-09T06:02:33;97525.63;;;6.18;88.32
26083;BME280;13848;49.018;12.078;2022-11-09T06:04:59;97528.13;;;6.26;87.77
26083;BME280;13848;49.018;12.078;2022-11-09T06:07:25;97530.41;;;6.22;87.57
26083;BME280;13848;49.018;12.078;2022-11-09T06:09:51;97541.50;;;6.26;87.65
26083;BME280;13848;49.018;12.078;2022-11-09T06:12:17;97537.59;;;6.22;87.08
26083;BME280;13848;49.018;12.078;2022-11-09T06:14:43;97544.59;;;6.23;87.05
26083;BME280;13848;49.018;12.078;2022-11-09T06:17:09;97553.25;;;6.25;87.18
26083;BME280;13848;49.018;12.078;2022-11-09T06:19:36;97547.09;;;6.31;86.58
26083;BME280;13848;49.018;12.078;2022-11-09T06:22:02;97547.03;;;6.18;87.11
26083;BME280;13848;49.018;12.078;2022-11-09T06:24:28;97548.66;;;6.12;86.87
26083;BME280;13848;49.018;12.078;2022-11-09T06:26:54;97551.53;;;6.10;87.77
26083;BME280;13848;49.018;12.078;2022-11-09T06:29:20;97552.94;;;6.06;87.13
26083;BME280;13848;49.018;12.078;2022-11-09T06:31:46;97555.84;;;5.83;87.85
26083;BME280;13848;49.018;12.078;2022-11-09T06:34:12;97559.88;;;5.73;89.41
26083;BME280;13848;49.018;12.078;2022-11-09T06:36:39;97566.28;;;5.50;90.89
26083;BME280;13848;49.018;12.078;2022-11-09T06:39:05;97570.75;;;5.43;91.07
26083;BME280;13848;49.018;12.078;2022-11-09T06:41:31;97578.13;;;5.41;91.66
26083;BME280;13848;49.018;12.078;2022-11-09T06:43:57;97583.31;;;5.71;90.70
26083;BME280;13848;49.018;12.078;2022-11-09T06:46:23;97590.38;;;5.78;90.09
26083;BME280;13848;49.018;12.078;2022-11-09T06:48:49;97581.28;;;5.73;89.31
26083;BME280;13848;49.018;12.078;2022-11-09T06:51:15;97579.88;;;5.55;90.44
26083;BME280;13848;49.018;12.078;2022-11-09T06:53:42;97595.13;;;5.55;91.00
26083;BME280;13848;49.018;12.078;2022-11-09T06:56:08;97600.50;;;5.61;91.50
26083;BME280;13848;49.018;12.078;2022-11-09T06:58:35;97604.31;;;5.74;90.67
26083;BME280;13848;49.018;12.078;2022-11-09T07:01:05;97611.72;;;5.72;90.85
26083;BME280;13848;49.018;12.078;2022-11-09T07:03:32;97616.50;;;5.55;91.68
26083;BME280;13848;49.018;12.078;2022-11-09T07:05:57;97620.59;;;5.51;91.42
26083;BME280;13848;49.018;12.078;2022-11-09T07:08:28;97618.97;;;5.56;90.83
26083;BME280;13848;49.018;12.078;2022-11-09T07:11:01;97609.06;;;5.50;91.50
26083;BME280;13848;49.018;12.078;2022-11-09T07:13:27;97613.84;;;5.33;91.26
26083;BME280;13848;49.018;12.078;2022-11-09T07:15:53;97618.59;;;5.38;92.61
26083;BME280;13848;49.018;12.078;2022-11-09T07:18:19;97617.56;;;5.39;92.60
26083;BME280;13848;49.018;12.078;2022-11-09T07:20:45;97626.78;;;5.51;91.90
26083;BME280;13848;49.018;12.078;2022-11-09T07:23:11;97614.03;;;5.53;91.83
26083;BME280;13848;49.018;12.078;2022-11-09T07:25:37;97627.66;;;5.58;90.78
26083;BME280;13848;49.018;12.078;2022-11-09T07:28:06;97640.88;;;5.67;91.13
26083;BME280;13848;49.018;12.078;2022-11-09T07:30:32;97627.31;;;5.68;90.64
26083;BME280;13848;49.018;12.078;2022-11-09T07:32:58;97635.78;;;5.50;90.78
26083;BME280;13848;49.018;12.078;2022-11-09T07:35:24;97632.25;;;5.65;91.18
26083;BME280;13848;49.018;12.078;2022-11-09T07:37:50;97647.38;;;5.79;90.81
26083;BME280;13848;49.018;12.078;2022-11-09T07:40:16;97654.84;;;5.83;90.31
26083;BME280;13848;49.018;12.078;2022-11-09T07:42:42;97665.25;;;5.93;89.17
26083;BME280;13848;49.018;12.078;2022-11-09T07:45:10;97671.09;;;5.82;90.12
26083;BME280;13848;49.018;12.078;2022-11-09T07:47:36;97674.56;;;5.97;89.59
26083;BME280;13848;49.018;12.078;2022-11-09T07:50:02;97672.25;;;5.94;89.12
26083;BME280;13848;49.018;12.078;2022-11-09T07:52:29;97688.22;;;5.66;89.50
26083;BME280;13848;49.018;12.078;2022-11-09T07:54:55;97676.56;;;5.52;90.76
26083;BME280;13848;49.018;12.078;2022-11-09T07:57:20;97674.00;;;5.66;90.17
26083;BME280;13848;49.018;12.078;2022-11-09T07:59:46;97667.31;;;5.55;90.94
26083;BME280;13848;49.018;12.078;2022-11-09T08:02:14;97678.50;;;5.44;91.17
26083;BME280;13848;49.018;12.078;2022-11-09T08:04:40;97668.81;;;5.57;90.89
26083;BME280;13848;49.018;12.078;2022-11-09T08:07:06;97667.31;;;5.76;90.87
26083;BME280;13848;49.018;12.078;2022-11-09T08:09:32;97674.00;;;5.66;90.45
26083;BME280;13848;49.018;12.078;2022-11-09T08:11:58;97660.94;;;5.56;90.93
26083;BME280;13848;49.018;12.078;2022-11-09T08:14:23;97648.28;;;5.65;90.32
26083;BME280;13848;49.018;12.078;2022-11-09T08:16:49;97665.72;;;5.60;90.78
26083;BME280;13848;49.018;12.078;2022-11-09T08:19:17;97663.16;;;5.74;90.81
26083;BME280;13848;49.018;12.078;2022-11-09T08:21:43;97666.94;;;5.58;91.47
26083;BME280;13848;49.018;12.078;2022-11-09T08:24:09;97659.75;;;5.58;91.73
26083;BME280;13848;49.018;12.078;2022-11-09T08:26:35;97662.53;;;5.72;91.23
26083;BME280;13848;49.018;12.078;2022-11-09T08:29:01;97672.41;;;5.71;91.04
26083;BME280;13848;49.018;12.078;2022-11-09T08:31:27;97678.34;;;5.67;91.02
26083;BME280;13848;49.018;12.078;2022-11-09T08:33:52;97672.56;;;5.63;91.55
26083;BME280;13848;49.018;12.078;2022-11-09T08:36:20;97679.50;;;5.57;91.89
26083;BME280;13848;49.018;12.078;2022-11-09T08:38:46;97673.88;;;5.74;91.90
26083;BME280;13848;49.018;12.078;2022-11-09T08:41:12;97674.03;;;5.87;90.75
26083;BME280;13848;49.018;12.078;2022-11-09T08:43:39;97683.91;;;5.86;90.65
26083;BME280;13848;49.018;12.078;2022-11-09T08:46:05;97683.59;;;5.96;90.22
26083;BME280;13848;49.018;12.078;2022-11-09T08:48:31;97676.56;;;5.95;90.65
26083;BME280;13848;49.018;12.078;2022-11-09T08:50:59;97685.47;;;6.02;90.38
26083;BME280;13848;49.018;12.078;2022-11-09T08:53:28;97684.72;;;6.08;89.85
26083;BME280;13848;49.018;12.078;2022-11-09T08:55:54;97685.88;;;6.21;89.75
26083;BME280;13848;49.018;12.078;2022-11-09T08:58:21;97680.72;;;6.26;89.76
26083;BME280;13848;49.018;12.078;2022-11-09T09:00:47;97676.16;;;6.20;89.31
26083;BME280;13848;49.018;12.078;2022-11-09T09:03:13;97669.63;;;6.01;89.49
26083;BME280;13848;49.018;12.078;2022-11-09T09:05:39;97676.69;;;5.87;91.01
26083;BME280;13848;49.018;12.078;2022-11-09T09:08:05;97684.50;;;6.03;90.60
26083;BME280;13848;49.018;12.078;2022-11-09T09:10:33;97682.59;;;5.97;90.31
26083;BME280;13848;49.018;12.078;2022-11-09T09:12:59;97681.31;;;5.93;91.13
26083;BME280;13848;49.018;12.078;2022-11-09T09:15:25;97691.59;;;5.75;91.52
26083;BME280;13848;49.018;12.078;2022-11-09T09:17:51;97696.44;;;5.86;90.95
26083;BME280;13848;49.018;12.078;2022-11-09T09:20:17;97694.53;;;5.80;91.81
26083;BME280;13848;49.018;12.078;2022-11-09T09:22:44;97693.31;;;5.82;91.53
26083;BME280;13848;49.018;12.078;2022-11-09T09:25:10;97690.44;;;5.84;91.57
26083;BME280;13848;49.018;12.078;2022-11-09T09:27:37;97683.84;;;6.01;91.32
26083;BME280;13848;49.018;12.078;2022-11-09T09:30:04;97687.69;;;5.92;91.18
26083;BME280;13848;49.018;12.078;2022-11-09T09:32:30;97685.84;;;5.78;91.10
26083;BME280;13848;49.018;12.078;2022-11-09T09:34:56;97695.28;;;5.74;91.57
26083;BME280;13848;49.018;12.078;2022-11-09T09:37:22;97705.09;;;5.88;90.83
26083;BME280;13848;49.018;12.078;2022-11-09T09:39:48;97718.28;;;5.90;91.21
26083;BME280;13848;49.018;12.078;2022-11-09T09:42:16;97702.44;;;5.88;91.62
26083;BME280;13848;49.018;12.078;2022-11-09T09:44:49;97710.09;;;5.91;91.07
26083;BME280;13848;49.018;12.078;2022-11-09T09:47:20;97701.44;;;6.10;90.11
26083;BME280;13848;49.018;12.078;2022-11-09T09:49:51;97715.13;;;6.22;90.30
26083;BME280;13848;49.018;12.078;2022-11-09T09:52:24;97705.06;;;6.31;90.18
26083;BME280;13848;49.018;12.078;2022-11-09T09:54:57;97709.66;;;6.37;89.06
26083;BME280;13848;49.018;12.078;2022-11-09T09:57:27;97709.53;;;6.45;88.32
26083;BME280;13848;49.018;12.078;2022-11-09T09:59:58;97721.09;;;6.52;88.72
26083;BME280;13848;49.018;12.078;2022-11-09T10:02:26;97708.34;;;6.54;88.28
26083;BME280;13848;49.018;12.078;2022-11-09T10:04:58;97712.81;;;6.47;87.92
26083;BME280;13848;49.018;12.078;2022-11-09T10:07:29;97721.16;;;6.59;88.31
26083;BME280;13848;49.018;12.078;2022-11-09T10:10:32;97705.66;;;6.89;87.86
26083;BME280;13848;49.018;12.078;2022-11-09T10:13:36;97711.53;;;7.06;86.58
26083;BME280;13848;49.018;12.078;2022-11-09T10:16:11;97711.69;;;6.91;86.66
26083;BME280;13848;49.018;12.078;2022-11-09T10:18:47;97710.84;;;6.90;86.67
26083;BME280;13848;49.018;12.078;2022-11-09T10:21:30;97715.69;;;7.08;86.17
26083;BME280;13848;49.018;12.078;2022-11-09T10:24:06;97713.34;;;6.64;86.39
26083;BME280;13848;49.018;12.078;2022-11-09T10:26:38;97699.34;;;6.62;87.56
26083;BME280;13848;49.018;12.078;2022-11-09T10:29:18;97697.13;;;6.72;87.62
26083;BME280;13848;49.018;12.078;2022-11-09T10:31:47;97687.56;;;6.91;87.46
26083;BME280;13848;49.018;12.078;2022-11-09T10:34:17;97689.59;;;6.89;87.00
26083;BME280;13848;49.018;12.078;2022-11-09T10:36:49;97684.09;;;7.04;86.82
26083;BME280;13848;49.018;12.078;2022-11-09T10:39:17;97675.44;;;7.02;85.95
26083;BME280;13848;49.018;12.078;2022-11-09T10:41:46;97663.31;;;7.12;86.54
26083;BME280;13848;49.018;12.078;2022-11-09T10:44:13;97659.78;;;7.05;86.19
26083;BME280;13848;49.018;12.078;2022-11-09T10:47:02;97662.97;;;7.29;85.49
26083;BME280;13848;49.018;12.078;2022-11-09T10:49:29;97668.16;;;7.37;84.49
26083;BME280;13848;49.018;12.078;2022-11-09T10:51:55;97658.41;;;7.23;84.87
26083;BME280;13848;49.018;12.078;2022-11-09T10:54:22;97664.84;;;7.35;85.17
26083;BME280;13848;49.018;12.078;2022-11-09T10:56:56;97667.19;;;6.97;85.23
26083;BME280;13848;49.018;12.078;2022-11-09T10:59:36;97656.47;;;7.03;86.00
26083;BME280;13848;49.018;12.078;2022-11-09T11:02:40;97669.47;;;7.06;85.52
26083;BME280;13848;49.018;12.078;2022-11-09T11:05:30;97656.28;;;7.05;85.82
26083;BME280;13848;49.018;12.078;2022-11-09T11:08:10;97640.56;;;6.95;85.88
26083;BME280;13848;49.018;12.078;2022-11-09T11:10:44;97635.16;;;6.88;86.84
26083;BME280;13848;49.018;12.078;2022-11-09T11:13:31;97627.78;;;6.90;87.57
26083;BME280;13848;49.018;12.078;2022-11-09T11:15:57;97621.84;;;7.02;87.03
26083;BME280;13848;49.018;12.078;2022-11-09T11:18:25;97621.75;;;7.43;88.39
26083;BME280;13848;49.018;12.078;2022-11-09T11:21:11;97623.56;;;7.36;85.57
26083;BME280;13848;49.018;12.078;2022-11-09T11:23:37;97630.31;;;7.18;86.10
26083;BME280;13848;49.018;12.078;2022-11-09T11:26:16;97628.75;;;7.44;85.05
26083;BME280;13848;49.018;12.078;2022-11-09T11:28:47;97630.59;;;7.37;85.49
26083;BME280;13848;49.018;12.078;2022-11-09T11:31:17;97626.69;;;7.39;84.68
26083;BME280;13848;49.018;12.078;2022-11-09T11:33:45;97626.94;;;7.71;85.78
26083;BME280;13848;49.018;12.078;2022-11-09T11:36:18;97626.31;;;7.69;84.48
26083;BME280;13848;49.018;12.078;2022-11-09T11:38:56;97639.13;;;7.60;84.33
26083;BME280;13848;49.018;12.078;2022-11-09T11:41:46;97634.13;;;7.44;84.79
26083;BME280;13848;49.018;12.078;2022-11-09T11:44:24;97623.78;;;7.41;84.93
26083;BME280;13848;49.018;12.078;2022-11-09T11:47:00;97627.53;;;7.53;84.72
26083;BME280;13848;49.018;12.078;2022-11-09T11:49:40;97620.13;;;7.49;84.64
26083;BME280;13848;49.018;12.078;2022-11-09T11:52:10;97619.28;;;7.48;84.67
26083;BME280;13848;49.018;12.078;2022-11-09T11:54:47;97603.41;;;7.66;84.54
26083;BME280;13848;49.018;12.078;2022-11-09T11:57:24;97600.91;;;7.65;84.17
26083;BME280;13848;49.018;12.078;2022-11-09T12:00:02;97609.56;;;7.40;85.32
26083;BME280;13848;49.018;12.078;2022-11-09T12:02:58;97603.78;;;7.37;86.00
26083;BME280;13848;49.018;12.078;2022-11-09T12:05:44;97600.28;;;7.43;85.57
26083;BME280;13848;49.018;12.078;2022-11-09T12:08:17;97594.94;;;7.69;85.65
26083;BME280;13848;49.018;12.078;2022-11-09T12:10:52;97592.69;;;8.06;84.44
26083;BME280;13848;49.018;12.078;2022-11-09T12:13:51;97591.63;;;8.20;82.20
26083;BME280;13848;49.018;12.078;2022-11-09T12:16:23;97591.19;;;8.43;82.23
26083;BME280;13848;49.018;12.078;2022-11-09T12:19:00;97592.66;;;8.26;82.55
26083;BME280;13848;49.018;12.078;2022-11-09T12:21:35;97573.38;;;8.56;82.46
26083;BME280;13848;49.018;12.078;2022-11-09T12:24:13;97583.25;;;8.82;80.84
26083;BME280;13848;49.018;12.078;2022-11-09T12:26:53;97577.69;;;8.63;81.72
26083;BME280;13848;49.018;12.078;2022-11-09T12:29:22;97579.81;;;8.48;82.33
26083;BME280;13848;49.018;12.078;2022-11-09T12:31:59;97574.63;;;8.46;81.56
26083;BME280;13848;49.018;12.078;2022-11-09T12:34:33;97577.88;;;8.68;81.65
26083;BME280;13848;49.018;12.078;2022-11-09T12:37:02;97574.31;;;8.88;80.28
26083;BME280;13848;49.018;12.078;2022-11-09T12:39:35;97579.81;;;8.48;81.32
26083;BME280;13848;49.018;12.078;2022-11-09T12:42:05;97571.78;;;8.21;82.42
26083;BME280;13848;49.018;12.078;2022-11-09T12:44:38;97567.59;;;8.52;82.40
26083;BME280;13848;49.018;12.078;2022-11-09T12:47:10;97575.84;;;8.70;81.86
26083;BME280;13848;49.018;12.078;2022-11-09T12:49:40;97564.28;;;8.57;81.27
26083;BME280;13848;49.018;12.078;2022-11-09T12:52:11;97568.63;;;8.64;81.40
26083;BME280;13848;49.018;12.078;2022-11-09T12:54:40;97562.22;;;8.52;81.64
26083;BME280;13848;49.018;12.078;2022-11-09T12:57:10;97550.19;;;8.68;81.58
26083;BME280;13848;49.018;12.078;2022-11-09T12:59:45;97546.50;;;9.07;81.60
26083;BME280;13848;49.018;12.078;2022-11-09T13:02:22;97548.31;;;9.13;80.63
26083;BME280;13848;49.018;12.078;2022-11-09T13:04:54;97551.19;;;9.18;82.08
26083;BME280;13848;49.018;12.078;2022-11-09T13:07:31;97539.41;;;9.44;79.44
26083;BME280;13848;49.018;12.078;2022-11-09T13:09:59;97549.03;;;9.33;78.70